sensor_id;sensor_type;location;lat;lon;timestamp;P1;durP1;ratioP1;P2;durP2;ratioP2
8502;SDS011;4289;48.664;12.700;2023-12-07T00:01:07;0.20;;;0.20;;
8502;SDS011;4289;48.664;12.700;2023-12-07T00:04:29;0.20;;;0.20;;
8502;SDS011;4289;48.664;12.700;2023-12-07T00:07:51;0.20;;;0.20;;
8502;SDS011;4289;48.664;12.700;2023-12-07T00:11:13;0.10;;;0.10;;
8502;SDS011;4289;48.664;12.700;2023-12-07T00:14:37;0.10;;;0.10;;
8502;SDS011;4289;48.664;12.700;2023-12-07T00:18:01;0.10;;;0.10;;
8502;SDS011;4289;48.664;12.700;2023-12-07T00:21:23;0.10;;;0.10;;
8502;SDS011;4289;48.664;12.700;2023-12-07T00:24:45;0.10;;;0.10;;
8502;SDS011;4289;48.664;12.700;2023-12-07T00:28:08;0.20;;;0.20;;
8502;SDS011;4289;48.664;12.700;2023-12-07T00:31:32;0.10;;;0.10;;
8502;SDS011;4289;48.664;12.700;2023-12-07T00:34:54;0.10;;;0.10;;
8502;SDS011;4289;48.664;12.700;2023-12-07T00:38:16;0.20;;;0.20;;
8502;SDS011;4289;48.664;12.700;2023-12-07T00:41:41;0.10;;;0.10;;
8502;SDS011;4289;48.664;12.700;2023-12-07T00:45:03;0.20;;;0.20;;
8502;SDS011;4289;48.664;12.700;2023-12-07T00:48:28;0.20;;;0.20;;
8502;SDS011;4289;48.664;12.700;2023-12-07T00:51:50;0.20;;;0.20;;
8502;SDS011;4289;48.664;12.700;2023-12-07T00:55:13;0.13;;;0.13;;
8502;SDS011;4289;48.664;12.700;2023-12-07T00:58:35;0.10;;;0.10;;
8502;SDS011;4289;48.664;12.700;2023-12-07T01:02:04;0.10;;;0.10;;
8502;SDS011;4289;48.664;12.700;2023-12-07T01:05:29;0.10;;;0.10;;
8502;SDS011;4289;48.664;12.700;2023-12-07T01:08:51;0.10;;;0.10;;
8502;SDS011;4289;48.664;12.700;2023-12-07T01:12:16;0.20;;;0.20;;
8502;SDS011;4289;48.664;12.700;2023-12-07T01:15:40;0.10;;;0.10;;
8502;SDS011;4289;48.664;12.700;2023-12-07T01:19:03;0.10;;;0.10;;
8502;SDS011;4289;48.664;12.700;2023-12-07T01:22:26;0.20;;;0.20;;
8502;SDS011;4289;48.664;12.700;2023-12-07T01:25:49;0.10;;;0.10;;
8502;SDS011;4289;48.664;12.700;2023-12-07T01:29:11;0.20;;;0.20;;
8502;SDS011;4289;48.664;12.700;2023-12-07T01:32:34;0.20;;;0.20;;
8502;SDS011;4289;48.664;12.700;2023-12-07T01:35:56;0.13;;;0.13;;
8502;SDS011;4289;48.664;12.700;2023-12-07T01:39:20;0.20;;;0.20;;
8502;SDS011;4289;48.664;12.700;2023-12-07T01:42:48;0.20;;;0.20;;
8502;SDS011;4289;48.664;12.700;2023-12-07T01:46:11;0.10;;;0.10;;
8502;SDS011;4289;48.664;12.700;2023-12-07T01:49:33;0.20;;;0.20;;
8502;SDS011;4289;48.664;12.700;2023-12-07T01:52:57;0.10;;;0.10;;
8502;SDS011;4289;48.664;12.700;2023-12-07T01:56:24;0.10;;;0.10;;
8502;SDS011;4289;48.664;12.700;2023-12-07T01:59:48;0.10;;;0.10;;
8502;SDS011;4289;48.664;12.700;2023-12-07T02:03:10;0.13;;;0.13;;
8502;SDS011;4289;48.664;12.700;2023-12-07T02:06:33;0.20;;;0.20;;
8502;SDS011;4289;48.664;12.700;2023-12-07T02:09:56;0.20;;;0.20;;
8502;SDS011;4289;48.664;12.700;2023-12-07T02:13:20;0.20;;;0.20;;
8502;SDS011;4289;48.664;12.700;2023-12-07T02:16:43;0.20;;;0.20;;
8502;SDS011;4289;48.664;12.700;2023-12-07T02:20:09;0.20;;;0.20;;
8502;SDS011;4289;48.664;12.700;2023-12-07T02:23:34;0.10;;;0.10;;
8502;SDS011;4289;48.664;12.700;2023-12-07T02:26:58;0.10;;;0.10;;
8502;SDS011;4289;48.664;12.700;2023-12-07T02:30:21;0.20;;;0.20;;
8502;SDS011;4289;48.664;12.700;2023-12-07T02:33:43;0.20;;;0.20;;
8502;SDS011;4289;48.664;12.700;2023-12-07T02:37:05;0.20;;;0.20;;
8502;SDS011;4289;48.664;12.700;2023-12-07T02:40:28;0.10;;;0.10;;
8502;SDS011;4289;48.664;12.700;2023-12-07T02:43:52;0.10;;;0.10;;
8502;SDS011;4289;48.664;12.700;2023-12-07T02:47:15;0.20;;;0.20;;
8502;SDS011;4289;48.664;12.700;2023-12-07T02:50:37;0.17;;;0.17;;
8502;SDS011;4289;48.664;12.700;2023-12-07T02:53:59;0.20;;;0.20;;
8502;SDS011;4289;48.664;12.700;2023-12-07T02:57:22;0.10;;;0.10;;
8502;SDS011;4289;48.664;12.700;2023-12-07T03:00:45;0.10;;;0.10;;
8502;SDS011;4289;48.664;12.700;2023-12-07T03:04:08;0.13;;;0.13;;
8502;SDS011;4289;48.664;12.700;2023-12-07T03:07:30;0.10;;;0.10;;
8502;SDS011;4289;48.664;12.700;2023-12-07T03:10:54;0.10;;;0.10;;
8502;SDS011;4289;48.664;12.700;2023-12-07T03:14:16;0.20;;;0.20;;
8502;SDS011;4289;48.664;12.700;2023-12-07T03:17:41;0.20;;;0.20;;
8502;SDS011;4289;48.664;12.700;2023-12-07T03:21:03;0.13;;;0.13;;
8502;SDS011;4289;48.664;12.700;2023-12-07T03:24:26;0.10;;;0.10;;
8502;SDS011;4289;48.664;12.700;2023-12-07T03:27:48;0.20;;;0.20;;
8502;SDS011;4289;48.664;12.700;2023-12-07T03:31:11;0.20;;;0.20;;
8502;SDS011;4289;48.664;12.700;2023-12-07T03:34:35;0.10;;;0.10;;
8502;SDS011;4289;48.664;12.700;2023-12-07T03:37:57;0.10;;;0.10;;
8502;SDS011;4289;48.664;12.700;2023-12-07T03:41:19;0.10;;;0.10;;
8502;SDS011;4289;48.664;12.700;2023-12-07T03:44:42;0.20;;;0.20;;
8502;SDS011;4289;48.664;12.700;2023-12-07T03:48:05;0.20;;;0.20;;
8502;SDS011;4289;48.664;12.700;2023-12-07T03:51:28;0.20;;;0.20;;
8502;SDS011;4289;48.664;12.700;2023-12-07T03:54:54;0.20;;;0.20;;
8502;SDS011;4289;48.664;12.700;2023-12-07T03:58:17;0.10;;;0.10;;
8502;SDS011;4289;48.664;12.700;2023-12-07T04:01:39;0.13;;;0.13;;
8502;SDS011;4289;48.664;12.700;2023-12-07T04:05:02;0.10;;;0.10;;
8502;SDS011;4289;48.664;12.700;2023-12-07T04:08:26;0.10;;;0.10;;
8502;SDS011;4289;48.664;12.700;2023-12-07T04:11:48;0.10;;;0.10;;
8502;SDS011;4289;48.664;12.700;2023-12-07T04:15:13;0.17;;;0.17;;
8502;SDS011;4289;48.664;12.700;2023-12-07T04:18:36;0.20;;;0.20;;
8502;SDS011;4289;48.664;12.700;2023-12-07T04:21:58;0.10;;;0.10;;
8502;SDS011;4289;48.664;12.700;2023-12-07T04:25:22;0.20;;;0.20;;
8502;SDS011;4289;48.664;12.700;2023-12-07T04:28:45;0.10;;;0.10;;
8502;SDS011;4289;48.664;12.700;2023-12-07T04:32:08;0.20;;;0.20;;
8502;SDS011;4289;48.664;12.700;2023-12-07T04:35:30;0.10;;;0.10;;
8502;SDS011;4289;48.664;12.700;2023-12-07T04:38:54;0.10;;;0.10;;
8502;SDS011;4289;48.664;12.700;2023-12-07T04:42:21;0.10;;;0.10;;
8502;SDS011;4289;48.664;12.700;2023-12-07T04:45:43;0.20;;;0.20;;
8502;SDS011;4289;48.664;12.700;2023-12-07T04:49:06;0.10;;;0.10;;
8502;SDS011;4289;48.664;12.700;2023-12-07T04:52:29;0.10;;;0.10;;
8502;SDS011;4289;48.664;12.700;2023-12-07T04:55:51;0.20;;;0.20;;
8502;SDS011;4289;48.664;12.700;2023-12-07T04:59:15;0.20;;;0.20;;
8502;SDS011;4289;48.664;12.700;2023-12-07T05:02:38;0.20;;;0.20;;
8502;SDS011;4289;48.664;12.700;2023-12-07T05:06:00;0.10;;;0.10;;
8502;SDS011;4289;48.664;12.700;2023-12-07T05:09:24;0.20;;;0.20;;
8502;SDS011;4289;48.664;12.700;2023-12-07T05:12:46;0.10;;;0.10;;
8502;SDS011;4289;48.664;12.700;2023-12-07T05:16:11;0.20;;;0.20;;
8502;SDS011;4289;48.664;12.700;2023-12-07T05:19:34;0.20;;;0.20;;
8502;SDS011;4289;48.664;12.700;2023-12-07T05:22:56;0.10;;;0.10;;
8502;SDS011;4289;48.664;12.700;2023-12-07T05:26:19;0.17;;;0.17;;
8502;SDS011;4289;48.664;12.700;2023-12-07T05:29:41;0.10;;;0.10;;
8502;SDS011;4289;48.664;12.700;2023-12-07T05:33:05;0.17;;;0.17;;
8502;SDS011;4289;48.664;12.700;2023-12-07T05:36:28;0.20;;;0.20;;
8502;SDS011;4289;48.664;12.700;2023-12-07T05:39:50;0.27;;;0.27;;
8502;SDS011;4289;48.664;12.700;2023-12-07T05:43:13;0.20;;;0.20;;
8502;SDS011;4289;48.664;12.700;2023-12-07T05:46:36;0.13;;;0.13;;
8502;SDS011;4289;48.664;12.700;2023-12-07T05:50:06;0.20;;;0.20;;
8502;SDS011;4289;48.664;12.700;2023-12-07T05:53:30;0.20;;;0.20;;
8502;SDS011;4289;48.664;12.700;2023-12-07T05:56:52;0.20;;;0.20;;
8502;SDS011;4289;48.664;12.700;2023-12-07T06:00:16;0.20;;;0.20;;
8502;SDS011;4289;48.664;12.700;2023-12-07T06:03:39;0.10;;;0.10;;
8502;SDS011;4289;48.664;12.700;2023-12-07T06:07:04;0.10;;;0.10;;
8502;SDS011;4289;48.664;12.700;2023-12-07T06:10:26;0.10;;;0.10;;
8502;SDS011;4289;48.664;12.700;2023-12-07T06:13:49;0.10;;;0.10;;
8502;SDS011;4289;48.664;12.700;2023-12-07T06:17:14;0.20;;;0.20;;
8502;SDS011;4289;48.664;12.700;2023-12-07T06:20:37;0.10;;;0.10;;
8502;SDS011;4289;48.664;12.700;2023-12-07T06:24:06;0.20;;;0.20;;
8502;SDS011;4289;48.664;12.700;2023-12-07T06:27:31;0.10;;;0.10;;
8502;SDS011;4289;48.664;12.700;2023-12-07T06:30:55;0.20;;;0.20;;
8502;SDS011;4289;48.664;12.700;2023-12-07T06:34:18;0.20;;;0.20;;
8502;SDS011;4289;48.664;12.700;2023-12-07T06:37:52;0.10;;;0.10;;
8502;SDS011;4289;48.664;12.700;2023-12-07T06:46:04;0.10;;;0.10;;
8502;SDS011;4289;48.664;12.700;2023-12-07T06:49:56;0.10;;;0.10;;
8502;SDS011;4289;48.664;12.700;2023-12-07T06:53:23;0.10;;;0.10;;
8502;SDS011;4289;48.664;12.700;2023-12-07T06:56:46;0.20;;;0.20;;
8502;SDS011;4289;48.664;12.700;2023-12-07T07:00:09;0.20;;;0.20;;
8502;SDS011;4289;48.664;12.700;2023-12-07T07:03:34;0.20;;;0.20;;
8502;SDS011;4289;48.664;12.700;2023-12-07T07:06:57;0.10;;;0.10;;
8502;SDS011;4289;48.664;12.700;2023-12-07T07:10:22;0.10;;;0.10;;
8502;SDS011;4289;48.664;12.700;2023-12-07T07:13:50;0.10;;;0.10;;
8502;SDS011;4289;48.664;12.700;2023-12-07T07:17:26;0.10;;;0.10;;
8502;SDS011;4289;48.664;12.700;2023-12-07T07:20:58;0.10;;;0.10;;
8502;SDS011;4289;48.664;12.700;2023-12-07T07:24:21;0.10;;;0.10;;
8502;SDS011;4289;48.664;12.700;2023-12-07T07:27:46;0.10;;;0.10;;
8502;SDS011;4289;48.664;12.700;2023-12-07T07:31:09;0.20;;;0.20;;
8502;SDS011;4289;48.664;12.700;2023-12-07T07:34:31;0.17;;;0.17;;
8502;SDS011;4289;48.664;12.700;2023-12-07T07:37:55;0.10;;;0.10;;
8502;SDS011;4289;48.664;12.700;2023-12-07T07:41:19;0.20;;;0.20;;
8502;SDS011;4289;48.664;12.700;2023-12-07T07:44:42;0.10;;;0.10;;
8502;SDS011;4289;48.664;12.700;2023-12-07T07:48:05;0.10;;;0.10;;
8502;SDS011;4289;48.664;12.700;2023-12-07T07:51:27;0.20;;;0.20;;
8502;SDS011;4289;48.664;12.700;2023-12-07T07:54:52;0.10;;;0.10;;
8502;SDS011;4289;48.664;12.700;2023-12-07T07:58:17;0.10;;;0.10;;
8502;SDS011;4289;48.664;12.700;2023-12-07T08:01:49;0.20;;;0.20;;
8502;SDS011;4289;48.664;12.700;2023-12-07T08:05:11;0.20;;;0.20;;
8502;SDS011;4289;48.664;12.700;2023-12-07T08:08:35;0.20;;;0.20;;
8502;SDS011;4289;48.664;12.700;2023-12-07T08:12:00;0.20;;;0.20;;
8502;SDS011;4289;48.664;12.700;2023-12-07T08:15:23;0.10;;;0.10;;
8502;SDS011;4289;48.664;12.700;2023-12-07T08:18:45;0.20;;;0.20;;
8502;SDS011;4289;48.664;12.700;2023-12-07T08:22:08;0.10;;;0.10;;
8502;SDS011;4289;48.664;12.700;2023-12-07T08:25:30;0.20;;;0.20;;
8502;SDS011;4289;48.664;12.700;2023-12-07T08:28:55;0.10;;;0.10;;
8502;SDS011;4289;48.664;12.700;2023-12-07T08:32:18;0.13;;;0.13;;
8502;SDS011;4289;48.664;12.700;2023-12-07T08:35:41;0.20;;;0.20;;
8502;SDS011;4289;48.664;12.700;2023-12-07T08:39:03;0.20;;;0.20;;
8502;SDS011;4289;48.664;12.700;2023-12-07T08:42:29;0.10;;;0.10;;
8502;SDS011;4289;48.664;12.700;2023-12-07T08:45:53;0.10;;;0.10;;
8502;SDS011;4289;48.664;12.700;2023-12-07T08:49:16;0.20;;;0.20;;
8502;SDS011;4289;48.664;12.700;2023-12-07T08:52:42;0.20;;;0.20;;
8502;SDS011;4289;48.664;12.700;2023-12-07T08:56:04;0.10;;;0.10;;
8502;SDS011;4289;48.664;12.700;2023-12-07T08:59:28;0.20;;;0.20;;
8502;SDS011;4289;48.664;12.700;2023-12-07T09:02:52;0.10;;;0.10;;
8502;SDS011;4289;48.664;12.700;2023-12-07T09:06:15;0.17;;;0.17;;
8502;SDS011;4289;48.664;12.700;2023-12-07T09:09:37;0.20;;;0.20;;
8502;SDS011;4289;48.664;12.700;2023-12-07T09:13:00;0.20;;;0.20;;
8502;SDS011;4289;48.664;12.700;2023-12-07T09:16:23;0.20;;;0.20;;
8502;SDS011;4289;48.664;12.700;2023-12-07T09:19:47;0.10;;;0.10;;
8502;SDS011;4289;48.664;12.700;2023-12-07T09:23:10;0.13;;;0.13;;
8502;SDS011;4289;48.664;12.700;2023-12-07T09:26:35;0.10;;;0.10;;
8502;SDS011;4289;48.664;12.700;2023-12-07T09:29:58;0.10;;;0.10;;
8502;SDS011;4289;48.664;12.700;2023-12-07T09:33:20;0.10;;;0.10;;
8502;SDS011;4289;48.664;12.700;2023-12-07T09:36:45;0.10;;;0.10;;
8502;SDS011;4289;48.664;12.700;2023-12-07T09:40:12;0.10;;;0.10;;
8502;SDS011;4289;48.664;12.700;2023-12-07T09:43:37;0.17;;;0.17;;
8502;SDS011;4289;48.664;12.700;2023-12-07T09:47:00;0.10;;;0.10;;
8502;SDS011;4289;48.664;12.700;2023-12-07T09:50:24;0.10;;;0.10;;
8502;SDS011;4289;48.664;12.700;2023-12-07T09:53:49;0.13;;;0.13;;
8502;SDS011;4289;48.664;12.700;2023-12-07T09:57:14;0.10;;;0.10;;
8502;SDS011;4289;48.664;12.700;2023-12-07T10:00:37;0.20;;;0.20;;
8502;SDS011;4289;48.664;12.700;2023-12-07T10:07:39;0.10;;;0.10;;
8502;SDS011;4289;48.664;12.700;2023-12-07T10:11:04;0.10;;;0.10;;
8502;SDS011;4289;48.664;12.700;2023-12-07T10:14:27;0.20;;;0.20;;
8502;SDS011;4289;48.664;12.700;2023-12-07T10:17:50;0.20;;;0.20;;
8502;SDS011;4289;48.664;12.700;2023-12-07T10:21:13;0.10;;;0.10;;
8502;SDS011;4289;48.664;12.700;2023-12-07T10:24:36;0.20;;;0.20;;
8502;SDS011;4289;48.664;12.700;2023-12-07T10:27:59;0.10;;;0.10;;
8502;SDS011;4289;48.664;12.700;2023-12-07T10:31:26;0.13;;;0.13;;
8502;SDS011;4289;48.664;12.700;2023-12-07T10:34:51;0.20;;;0.20;;
8502;SDS011;4289;48.664;12.700;2023-12-07T10:38:13;0.10;;;0.10;;
8502;SDS011;4289;48.664;12.700;2023-12-07T10:41:36;0.20;;;0.20;;
8502;SDS011;4289;48.664;12.700;2023-12-07T10:45:01;0.17;;;0.17;;
8502;SDS011;4289;48.664;12.700;2023-12-07T10:48:26;0.20;;;0.20;;
8502;SDS011;4289;48.664;12.700;2023-12-07T10:51:51;0.20;;;0.20;;
8502;SDS011;4289;48.664;12.700;2023-12-07T10:55:20;0.10;;;0.10;;
8502;SDS011;4289;48.664;12.700;2023-12-07T10:58:44;0.17;;;0.17;;
8502;SDS011;4289;48.664;12.700;2023-12-07T11:02:09;0.20;;;0.20;;
8502;SDS011;4289;48.664;12.700;2023-12-07T11:05:35;0.20;;;0.20;;
8502;SDS011;4289;48.664;12.700;2023-12-07T11:08:59;0.20;;;0.20;;
8502;SDS011;4289;48.664;12.700;2023-12-07T11:12:24;0.20;;;0.20;;
8502;SDS011;4289;48.664;12.700;2023-12-07T11:15:52;0.10;;;0.10;;
8502;SDS011;4289;48.664;12.700;2023-12-07T11:23:11;0.20;;;0.20;;
8502;SDS011;4289;48.664;12.700;2023-12-07T11:26:37;0.10;;;0.10;;
8502;SDS011;4289;48.664;12.700;2023-12-07T11:30:02;0.20;;;0.20;;
8502;SDS011;4289;48.664;12.700;2023-12-07T11:33:25;0.20;;;0.20;;
8502;SDS011;4289;48.664;12.700;2023-12-07T11:36:53;0.20;;;0.20;;
8502;SDS011;4289;48.664;12.700;2023-12-07T11:40:16;0.20;;;0.20;;
8502;SDS011;4289;48.664;12.700;2023-12-07T11:43:42;0.20;;;0.20;;
8502;SDS011;4289;48.664;12.700;2023-12-07T11:47:05;0.20;;;0.20;;
8502;SDS011;4289;48.664;12.700;2023-12-07T11:50:28;0.20;;;0.20;;
8502;SDS011;4289;48.664;12.700;2023-12-07T11:53:52;0.20;;;0.20;;
8502;SDS011;4289;48.664;12.700;2023-12-07T11:57:15;0.20;;;0.20;;
8502;SDS011;4289;48.664;12.700;2023-12-07T12:00:38;0.10;;;0.10;;
8502;SDS011;4289;48.664;12.700;2023-12-07T12:04:01;0.20;;;0.20;;
8502;SDS011;4289;48.664;12.700;2023-12-07T12:07:24;0.20;;;0.20;;
8502;SDS011;4289;48.664;12.700;2023-12-07T12:10:50;0.20;;;0.20;;
8502;SDS011;4289;48.664;12.700;2023-12-07T12:14:17;0.10;;;0.10;;
8502;SDS011;4289;48.664;12.700;2023-12-07T12:17:39;0.20;;;0.20;;
8502;SDS011;4289;48.664;12.700;2023-12-07T12:21:02;0.10;;;0.10;;
8502;SDS011;4289;48.664;12.700;2023-12-07T12:24:26;0.20;;;0.20;;
8502;SDS011;4289;48.664;12.700;2023-12-07T12:27:50;0.20;;;0.20;;
8502;SDS011;4289;48.664;12.700;2023-12-07T12:31:15;0.20;;;0.20;;
8502;SDS011;4289;48.664;12.700;2023-12-07T12:34:38;0.10;;;0.10;;
8502;SDS011;4289;48.664;12.700;2023-12-07T12:38:00;0.20;;;0.20;;
8502;SDS011;4289;48.664;12.700;2023-12-07T12:41:27;0.20;;;0.20;;
8502;SDS011;4289;48.664;12.700;2023-12-07T12:44:52;0.20;;;0.20;;
8502;SDS011;4289;48.664;12.700;2023-12-07T12:48:14;0.10;;;0.10;;
8502;SDS011;4289;48.664;12.700;2023-12-07T12:51:37;0.20;;;0.20;;
8502;SDS011;4289;48.664;12.700;2023-12-07T12:55:00;0.20;;;0.20;;
8502;SDS011;4289;48.664;12.700;2023-12-07T12:58:22;0.10;;;0.10;;
8502;SDS011;4289;48.664;12.700;2023-12-07T13:01:46;0.20;;;0.20;;
8502;SDS011;4289;48.664;12.700;2023-12-07T13:05:08;0.20;;;0.20;;
8502;SDS011;4289;48.664;12.700;2023-12-07T13:08:32;0.20;;;0.20;;
8502;SDS011;4289;48.664;12.700;2023-12-07T13:11:55;0.20;;;0.20;;
8502;SDS011;4289;48.664;12.700;2023-12-07T13:15:18;0.10;;;0.10;;
8502;SDS011;4289;48.664;12.700;2023-12-07T13:18:43;0.10;;;0.10;;
8502;SDS011;4289;48.664;12.700;2023-12-07T13:22:06;0.20;;;0.20;;
8502;SDS011;4289;48.664;12.700;2023-12-07T13:25:28;0.10;;;0.10;;
8502;SDS011;4289;48.664;12.700;2023-12-07T13:28:51;0.17;;;0.17;;
8502;SDS011;4289;48.664;12.700;2023-12-07T13:32:14;0.20;;;0.20;;
8502;SDS011;4289;48.664;12.700;2023-12-07T13:35:37;0.20;;;0.20;;
8502;SDS011;4289;48.664;12.700;2023-12-07T13:39:00;0.20;;;0.20;;
8502;SDS011;4289;48.664;12.700;2023-12-07T13:42:23;0.20;;;0.20;;
8502;SDS011;4289;48.664;12.700;2023-12-07T13:45:46;0.10;;;0.10;;
8502;SDS011;4289;48.664;12.700;2023-12-07T13:49:09;0.17;;;0.17;;
8502;SDS011;4289;48.664;12.700;2023-12-07T13:52:33;0.20;;;0.20;;
8502;SDS011;4289;48.664;12.700;2023-12-07T13:55:55;0.10;;;0.10;;
8502;SDS011;4289;48.664;12.700;2023-12-07T13:59:18;0.10;;;0.10;;
8502;SDS011;4289;48.664;12.700;2023-12-07T14:02:40;0.23;;;0.23;;
8502;SDS011;4289;48.664;12.700;2023-12-07T14:06:05;0.13;;;0.13;;
8502;SDS011;4289;48.664;12.700;2023-12-07T14:09:29;0.20;;;0.20;;
8502;SDS011;4289;48.664;12.700;2023-12-07T14:12:51;0.20;;;0.20;;
8502;SDS011;4289;48.664;12.700;2023-12-07T14:16:14;0.10;;;0.10;;
8502;SDS011;4289;48.664;12.700;2023-12-07T14:19:36;0.20;;;0.20;;
8502;SDS011;4289;48.664;12.700;2023-12-07T14:22:59;0.20;;;0.20;;
8502;SDS011;4289;48.664;12.700;2023-12-07T14:26:26;0.10;;;0.10;;
8502;SDS011;4289;48.664;12.700;2023-12-07T14:29:48;0.20;;;0.20;;
8502;SDS011;4289;48.664;12.700;2023-12-07T14:33:11;0.10;;;0.10;;
8502;SDS011;4289;48.664;12.700;2023-12-07T14:36:33;0.20;;;0.20;;
8502;SDS011;4289;48.664;12.700;2023-12-07T14:39:56;0.17;;;0.17;;
8502;SDS011;4289;48.664;12.700;2023-12-07T14:43:20;0.20;;;0.20;;
8502;SDS011;4289;48.664;12.700;2023-12-07T14:46:42;0.20;;;0.20;;
8502;SDS011;4289;48.664;12.700;2023-12-07T14:50:05;0.20;;;0.20;;
8502;SDS011;4289;48.664;12.700;2023-12-07T14:53:27;0.20;;;0.20;;
8502;SDS011;4289;48.664;12.700;2023-12-07T14:56:50;0.20;;;0.20;;
8502;SDS011;4289;48.664;12.700;2023-12-07T15:00:14;0.20;;;0.20;;
8502;SDS011;4289;48.664;12.700;2023-12-07T15:03:38;0.20;;;0.20;;
8502;SDS011;4289;48.664;12.700;2023-12-07T15:07:01;0.20;;;0.20;;
8502;SDS011;4289;48.664;12.700;2023-12-07T15:10:25;0.20;;;0.20;;
8502;SDS011;4289;48.664;12.700;2023-12-07T15:13:47;0.20;;;0.20;;
8502;SDS011;4289;48.664;12.700;2023-12-07T15:17:11;0.20;;;0.20;;
8502;SDS011;4289;48.664;12.700;2023-12-07T15:20:36;0.20;;;0.20;;
8502;SDS011;4289;48.664;12.700;2023-12-07T15:23:59;0.20;;;0.20;;
8502;SDS011;4289;48.664;12.700;2023-12-07T15:27:39;0.10;;;0.10;;
8502;SDS011;4289;48.664;12.700;2023-12-07T15:31:06;0.20;;;0.20;;
8502;SDS011;4289;48.664;12.700;2023-12-07T15:34:30;0.20;;;0.20;;
8502;SDS011;4289;48.664;12.700;2023-12-07T15:37:53;0.20;;;0.20;;
8502;SDS011;4289;48.664;12.700;2023-12-07T15:41:18;0.20;;;0.20;;
8502;SDS011;4289;48.664;12.700;2023-12-07T15:44:40;0.20;;;0.20;;
8502;SDS011;4289;48.664;12.700;2023-12-07T15:48:04;0.20;;;0.20;;
8502;SDS011;4289;48.664;12.700;2023-12-07T15:51:29;0.20;;;0.20;;
8502;SDS011;4289;48.664;12.700;2023-12-07T15:54:52;0.20;;;0.20;;
8502;SDS011;4289;48.664;12.700;2023-12-07T15:58:14;0.20;;;0.20;;
8502;SDS011;4289;48.664;12.700;2023-12-07T16:01:38;0.20;;;0.20;;
8502;SDS011;4289;48.664;12.700;2023-12-07T16:05:09;0.10;;;0.10;;
8502;SDS011;4289;48.664;12.700;2023-12-07T16:08:33;0.20;;;0.20;;
8502;SDS011;4289;48.664;12.700;2023-12-07T16:11:55;0.20;;;0.20;;
8502;SDS011;4289;48.664;12.700;2023-12-07T16:15:18;0.17;;;0.17;;
8502;SDS011;4289;48.664;12.700;2023-12-07T16:18:40;0.20;;;0.20;;
8502;SDS011;4289;48.664;12.700;2023-12-07T16:22:03;0.20;;;0.20;;
8502;SDS011;4289;48.664;12.700;2023-12-07T16:25:27;0.20;;;0.20;;
8502;SDS011;4289;48.664;12.700;2023-12-07T16:28:57;0.13;;;0.13;;
8502;SDS011;4289;48.664;12.700;2023-12-07T16:32:20;0.10;;;0.10;;
8502;SDS011;4289;48.664;12.700;2023-12-07T16:35:50;0.20;;;0.20;;
8502;SDS011;4289;48.664;12.700;2023-12-07T16:39:12;0.10;;;0.10;;
8502;SDS011;4289;48.664;12.700;2023-12-07T16:42:38;0.10;;;0.10;;
8502;SDS011;4289;48.664;12.700;2023-12-07T16:46:12;0.20;;;0.20;;
8502;SDS011;4289;48.664;12.700;2023-12-07T16:49:35;0.20;;;0.20;;
8502;SDS011;4289;48.664;12.700;2023-12-07T16:52:57;0.20;;;0.20;;
8502;SDS011;4289;48.664;12.700;2023-12-07T16:56:20;0.20;;;0.20;;
8502;SDS011;4289;48.664;12.700;2023-12-07T16:59:44;0.20;;;0.20;;
8502;SDS011;4289;48.664;12.700;2023-12-07T17:03:07;0.17;;;0.17;;
8502;SDS011;4289;48.664;12.700;2023-12-07T17:06:29;0.20;;;0.20;;
8502;SDS011;4289;48.664;12.700;2023-12-07T17:09:52;0.20;;;0.20;;
8502;SDS011;4289;48.664;12.700;2023-12-07T17:13:14;0.10;;;0.10;;
8502;SDS011;4289;48.664;12.700;2023-12-07T17:16:38;0.20;;;0.20;;
8502;SDS011;4289;48.664;12.700;2023-12-07T17:20:01;0.20;;;0.20;;
8502;SDS011;4289;48.664;12.700;2023-12-07T17:23:23;0.20;;;0.20;;
8502;SDS011;4289;48.664;12.700;2023-12-07T17:26:45;0.27;;;0.27;;
8502;SDS011;4289;48.664;12.700;2023-12-07T17:30:08;0.20;;;0.20;;
8502;SDS011;4289;48.664;12.700;2023-12-07T17:33:32;0.20;;;0.20;;
8502;SDS011;4289;48.664;12.700;2023-12-07T17:36:55;0.20;;;0.20;;
8502;SDS011;4289;48.664;12.700;2023-12-07T17:40:17;0.20;;;0.20;;
8502;SDS011;4289;48.664;12.700;2023-12-07T17:43:39;0.10;;;0.10;;
8502;SDS011;4289;48.664;12.700;2023-12-07T17:47:02;0.20;;;0.20;;
8502;SDS011;4289;48.664;12.700;2023-12-07T17:50:26;0.17;;;0.17;;
8502;SDS011;4289;48.664;12.700;2023-12-07T17:53:48;0.30;;;0.30;;
8502;SDS011;4289;48.664;12.700;2023-12-07T17:57:10;0.20;;;0.20;;
8502;SDS011;4289;48.664;12.700;2023-12-07T18:00:32;0.20;;;0.20;;
8502;SDS011;4289;48.664;12.700;2023-12-07T18:03:55;0.50;;;0.50;;
8502;SDS011;4289;48.664;12.700;2023-12-07T18:07:19;0.30;;;0.30;;
8502;SDS011;4289;48.664;12.700;2023-12-07T18:10:42;0.43;;;0.43;;
8502;SDS011;4289;48.664;12.700;2023-12-07T18:14:05;0.30;;;0.30;;
8502;SDS011;4289;48.664;12.700;2023-12-07T18:17:27;0.30;;;0.30;;
8502;SDS011;4289;48.664;12.700;2023-12-07T18:20:49;0.30;;;0.30;;
8502;SDS011;4289;48.664;12.700;2023-12-07T18:24:13;0.50;;;0.50;;
8502;SDS011;4289;48.664;12.700;2023-12-07T18:27:36;1.00;;;1.00;;
8502;SDS011;4289;48.664;12.700;2023-12-07T18:30:59;0.70;;;0.70;;
8502;SDS011;4289;48.664;12.700;2023-12-07T18:34:21;0.93;;;0.93;;
8502;SDS011;4289;48.664;12.700;2023-12-07T18:37:44;0.50;;;0.50;;
8502;SDS011;4289;48.664;12.700;2023-12-07T18:41:07;0.70;;;0.70;;
8502;SDS011;4289;48.664;12.700;2023-12-07T18:44:30;0.30;;;0.30;;
8502;SDS011;4289;48.664;12.700;2023-12-07T18:47:52;0.20;;;0.20;;
8502;SDS011;4289;48.664;12.700;2023-12-07T18:51:15;0.20;;;0.20;;
8502;SDS011;4289;48.664;12.700;2023-12-07T18:54:38;0.20;;;0.20;;
8502;SDS011;4289;48.664;12.700;2023-12-07T18:58:02;0.20;;;0.20;;
8502;SDS011;4289;48.664;12.700;2023-12-07T19:01:30;0.30;;;0.30;;
8502;SDS011;4289;48.664;12.700;2023-12-07T19:04:52;0.20;;;0.20;;
8502;SDS011;4289;48.664;12.700;2023-12-07T19:08:15;0.30;;;0.30;;
8502;SDS011;4289;48.664;12.700;2023-12-07T19:11:37;0.27;;;0.27;;
8502;SDS011;4289;48.664;12.700;2023-12-07T19:15:01;0.20;;;0.20;;
8502;SDS011;4289;48.664;12.700;2023-12-07T19:18:23;0.20;;;0.20;;
8502;SDS011;4289;48.664;12.700;2023-12-07T19:21:46;0.20;;;0.20;;
8502;SDS011;4289;48.664;12.700;2023-12-07T19:25:09;0.20;;;0.20;;
8502;SDS011;4289;48.664;12.700;2023-12-07T19:28:31;0.30;;;0.30;;
8502;SDS011;4289;48.664;12.700;2023-12-07T19:31:55;0.17;;;0.17;;
8502;SDS011;4289;48.664;12.700;2023-12-07T19:35:17;0.30;;;0.30;;
8502;SDS011;4289;48.664;12.700;2023-12-07T19:38:40;0.20;;;0.20;;
8502;SDS011;4289;48.664;12.700;2023-12-07T19:42:02;0.20;;;0.20;;
8502;SDS011;4289;48.664;12.700;2023-12-07T19:45:25;0.20;;;0.20;;
8502;SDS011;4289;48.664;12.700;2023-12-07T19:48:51;0.20;;;0.20;;
8502;SDS011;4289;48.664;12.700;2023-12-07T19:52:14;0.20;;;0.20;;
8502;SDS011;4289;48.664;12.700;2023-12-07T19:55:38;0.30;;;0.30;;
8502;SDS011;4289;48.664;12.700;2023-12-07T19:59:01;0.30;;;0.30;;
8502;SDS011;4289;48.664;12.700;2023-12-07T20:02:27;0.20;;;0.20;;
8502;SDS011;4289;48.664;12.700;2023-12-07T20:05:55;0.20;;;0.20;;
8502;SDS011;4289;48.664;12.700;2023-12-07T20:09:18;0.20;;;0.20;;
8502;SDS011;4289;48.664;12.700;2023-12-07T20:12:41;0.30;;;0.30;;
8502;SDS011;4289;48.664;12.700;2023-12-07T20:16:04;0.30;;;0.30;;
8502;SDS011;4289;48.664;12.700;2023-12-07T20:19:29;0.20;;;0.20;;
8502;SDS011;4289;48.664;12.700;2023-12-07T20:22:55;0.20;;;0.20;;
8502;SDS011;4289;48.664;12.700;2023-12-07T20:26:18;0.20;;;0.20;;
8502;SDS011;4289;48.664;12.700;2023-12-07T20:29:41;0.30;;;0.30;;
8502;SDS011;4289;48.664;12.700;2023-12-07T20:33:03;0.30;;;0.30;;
8502;SDS011;4289;48.664;12.700;2023-12-07T20:36:26;0.20;;;0.20;;
8502;SDS011;4289;48.664;12.700;2023-12-07T20:39:50;0.20;;;0.20;;
8502;SDS011;4289;48.664;12.700;2023-12-07T20:43:13;0.20;;;0.20;;
8502;SDS011;4289;48.664;12.700;2023-12-07T20:46:35;0.20;;;0.20;;
8502;SDS011;4289;48.664;12.700;2023-12-07T20:49:58;0.20;;;0.20;;
8502;SDS011;4289;48.664;12.700;2023-12-07T20:53:21;0.20;;;0.20;;
8502;SDS011;4289;48.664;12.700;2023-12-07T20:56:46;0.20;;;0.20;;